Latest Weather Observations for Witchcliffe

IDW60801

Issued at 3:33 pm WST Tuesday 28 June 2016 (issued every 30 minutes, with the page automatically refreshed every 10 minutes)

About weather observations | Map of weather stations | Latest weather observations for WA | Other Formats
Station Details ID: 009746 Name: WITCHCLIFFE Lat: -34.03 Lon: 115.10 Height: 80.0 m
Data from the previous 72 hours. | See also: Recent months at Witchcliffe
Date/Time
WST
Temp
°C
App
Temp
°C
Dew
Point
°C
Rel
Hum
%
Delta-T
°C
Wind Press
QNH
hPa
Press
MSL
hPa
Rain since
9am
mm
Dir  Spd
km/h
Gust
km/h
Spd
kts
Gust
kts
28/03:30pm 15.8 14.7 14.2 90 0.9 W 13 22 7 12 1009.2 1009.1 3.0
28/03:00pm 16.4 13.7 12.8 79 2.0 W 19 28 10 15 1009.0 1008.9 2.6
28/02:30pm 17.6 15.4 13.3 76 2.4 W 17 28 9 15 1008.7 1008.6 2.4
28/02:00pm 16.5 13.7 12.5 77 2.2 W 19 32 10 17 1008.7 1008.6 2.4
28/01:30pm 16.9 14.1 12.6 76 2.4 W 19 28 10 15 1008.6 1008.5 2.4
28/01:00pm 17.9 15.2 13.0 73 2.8 WNW 19 33 10 18 1008.8 1008.7 2.4
28/12:30pm 17.8 16.1 14.7 82 1.8 WNW 17 24 9 13 1009.1 1009.0 2.4
28/12:00pm 16.5 16.1 15.2 92 0.8 WNW 11 19 6 10 1009.6 1009.5 2.4
28/11:30am 16.2 15.4 15.1 93 0.6 NW 13 26 7 14 1009.9 1009.9 2.2
28/11:00am 15.5 14.6 14.9 96 0.3 NW 13 22 7 12 1010.0 1010.0 2.0
28/10:30am 15.2 14.7 15.0 99 0.1 WNW 11 17 6 9 1010.0 1010.0 2.0
28/10:00am 14.8 12.5 14.0 95 0.5 NW 19 32 10 17 1010.0 1010.0 1.6
28/09:30am 15.3 14.1 15.0 98 0.2 NNW 15 28 8 15 1009.9 1009.9 0.0
28/09:00am 14.6 13.5 14.4 99 0.1 NNW 13 17 7 9 1009.9 1009.9 20.0
28/08:30am 14.3 12.0 14.1 99 0.1 NNW 19 26 10 14 1009.9 1009.9 19.8
28/08:00am 13.8 13.2 13.6 99 0.1 NNW 9 13 5 7 1009.8 1009.8 19.8
28/07:30am 13.2 13.8 13.0 99 0.1 N 2 9 1 5 1009.7 1009.6 19.6
28/07:00am 13.9 13.4 13.7 99 0.1 N 9 11 5 6 1009.4 1009.3 19.6
28/06:30am 14.3 13.1 14.1 99 0.1 NW 13 24 7 13 1009.4 1009.3 19.6
28/06:00am 13.1 12.9 12.9 99 0.1 N 6 9 3 5 1009.4 1009.3 19.4
28/05:30am 13.0 12.7 12.8 99 0.1 NNW 6 15 3 8 1009.4 1009.3 19.4
28/05:00am 12.1 11.4 11.9 99 0.1 N 7 11 4 6 1009.6 1009.5 18.4
28/04:30am 11.9 10.3 11.7 99 0.1 N 11 15 6 8 1009.6 1009.5 18.4
28/04:00am 11.5 10.2 11.3 99 0.1 NNE 9 13 5 7 1009.8 1009.8 18.4
28/03:30am 11.4 10.1 11.1 98 0.2 NNE 9 13 5 7 1010.2 1010.2 18.4
28/03:00am 11.7 9.9 10.9 95 0.4 NNE 11 17 6 9 1010.5 1010.5 12.4
28/02:30am 11.6 9.4 10.8 95 0.4 NNE 13 17 7 9 1010.4 1010.4 11.8
28/02:00am 11.7 9.6 11.2 97 0.3 N 13 19 7 10 1010.4 1010.4 11.8
28/01:30am 11.9 9.9 11.6 98 0.2 N 13 19 7 10 1010.8 1010.8 11.8
28/01:00am 12.3 10.5 12.0 98 0.2 NNE 13 19 7 10 1011.0 1011.0 11.8
28/12:30am 12.9 10.9 12.7 99 0.1 NNE 15 22 8 12 1011.3 1011.3 11.8
28/12:00am 13.1 11.5 12.9 99 0.1 N 13 19 7 10 1011.8 1011.8 11.8
 
Date/Time
WST
Temp
°C
App
Temp
°C
Dew
Point
°C
Rel
Hum
%
Delta-T
°C
Wind Press
QNH
hPa
Press
MSL
hPa
Rain since
9am
mm
Dir  Spd
km/h
Gust
km/h
Spd
kts
Gust
kts
27/11:30pm 12.9 11.3 12.7 99 0.1 N 13 17 7 9 1012.1 1012.1 11.6
27/11:00pm 13.2 11.3 13.0 99 0.1 N 15 20 8 11 1012.3 1012.3 11.0
27/10:30pm 12.8 11.5 12.6 99 0.1 N 11 15 6 8 1012.5 1012.5 11.0
27/10:00pm 12.2 11.1 12.0 99 0.1 N 9 13 5 7 1012.9 1012.9 11.0
27/09:30pm 12.8 11.1 12.5 98 0.2 N 13 17 7 9 1013.2 1013.2 10.8
27/09:00pm 13.4 11.5 12.9 97 0.3 N 15 19 8 10 1013.2 1013.2 10.8
27/08:30pm 12.9 12.8 12.0 94 0.5 N 4 9 2 5 1013.4 1013.4 10.8
27/08:00pm 13.0 11.9 11.9 93 0.6 N 9 13 5 7 1013.5 1013.5 10.8
27/07:30pm 13.3 11.0 11.9 91 0.8 N 15 20 8 11 1013.4 1013.4 10.8
27/07:00pm 13.5 13.2 11.6 88 1.0 NNE 4 9 2 5 1013.4 1013.4 9.8
27/06:30pm 13.9 12.2 11.2 84 1.4 NNW 11 15 6 8 1013.6 1013.6 9.8
27/06:00pm 13.8 11.8 11.5 86 1.2 NNW 13 20 7 11 1013.4 1013.4 9.8
27/05:30pm 13.7 12.6 11.8 88 1.0 NNW 9 15 5 8 1013.4 1013.4 9.8
27/05:00pm 14.4 10.9 11.0 80 1.8 NNW 20 28 11 15 1013.3 1013.3 9.2
27/04:30pm 14.9 11.5 10.7 76 2.2 NNW 19 28 10 15 1013.1 1013.1 9.0
27/04:00pm 15.0 10.8 11.2 78 2.0 NNW 24 33 13 18 1013.2 1013.2 9.0
27/03:30pm 14.6 10.4 11.2 80 1.8 NNW 24 35 13 19 1013.4 1013.4 8.8
27/03:00pm 14.3 11.9 12.7 90 0.9 N 17 24 9 13 1013.4 1013.4 8.8
27/02:30pm 14.3 11.4 13.0 92 0.7 N 20 28 11 15 1013.6 1013.6 8.6
27/02:00pm 14.5 12.6 13.0 91 0.8 NNW 15 26 8 14 1013.9 1013.9 8.4
27/01:30pm 14.4 11.6 13.3 93 0.6 N 20 28 11 15 1013.9 1013.9 7.4
27/01:00pm 14.2 10.2 11.7 85 1.3 NNW 24 37 13 20 1014.4 1014.4 6.6
27/12:30pm 14.3 11.4 13.0 92 0.7 NNW 20 30 11 16 1015.0 1015.0 6.6
27/12:00pm 14.0 11.2 12.7 92 0.7 NW 19 26 10 14 1015.8 1015.8 5.8
27/11:30am 13.8 12.0 13.2 96 0.3 NW 15 24 8 13 1016.2 1016.2 5.8
27/11:00am 14.7 11.6 12.2 85 1.4 NNW 20 33 11 18 1016.6 1016.6 1.2
27/10:30am 15.5 12.9 11.9 79 2.0 NNW 17 28 9 15 1016.8 1016.8 0.4
27/10:00am 15.5 13.3 12.1 80 1.9 NNW 15 22 8 12 1017.2 1017.2 0.4
27/09:30am 13.7 10.6 12.3 91 0.8 NNW 20 30 11 16 1017.4 1017.4 0.4
27/09:00am 13.5 9.5 11.9 90 0.9 NW 24 43 13 23 1017.8 1017.8 2.0
27/08:54am 13.7 10.5 11.2 85 1.3 NNW 19 43 10 23 1017.7 1017.7 1.6
27/08:30am 13.2 11.4 10.7 85 1.3 N 11 15 6 8 1017.2 1017.2 1.0
27/08:00am 11.8 9.9 10.4 91 0.7 N 11 15 6 8 1017.2 1017.2 1.0
27/07:30am 11.7 10.2 10.6 93 0.6 NNW 9 13 5 7 1017.2 1017.2 1.0
27/07:00am 12.3 10.8 10.5 89 0.9 N 9 17 5 9 1017.0 1017.0 1.0
27/06:30am 12.8 10.4 10.0 83 1.4 N 13 19 7 10 1017.2 1017.2 1.0
27/06:00am 13.3 11.5 10.7 84 1.4 NNW 11 17 6 9 1017.4 1017.4 1.0
27/05:30am 13.2 10.1 10.2 82 1.6 NNW 17 22 9 12 1017.4 1017.4 1.0
27/05:00am 12.7 10.2 9.7 82 1.5 NNW 13 17 7 9 1017.4 1017.4 1.0
27/04:30am 13.0 10.3 10.5 85 1.3 N 15 22 8 12 1017.6 1017.6 1.0
27/04:00am 12.8 10.9 9.1 78 1.9 NNW 9 15 5 8 1017.9 1017.9 0.4
27/03:30am 12.7 10.7 8.6 76 2.1 N 9 11 5 6 1017.7 1017.7 0.4
27/03:00am 13.3 10.9 8.8 74 2.3 N 11 15 6 8 1018.1 1018.1 0.4
27/02:30am 13.9 11.2 8.9 72 2.5 NW 13 17 7 9 1018.5 1018.5 0.4
27/02:00am 14.0 10.6 9.0 72 2.5 NNW 17 24 9 13 1018.7 1018.7 0.4
27/01:30am 14.3 10.7 8.5 68 2.9 NW 17 28 9 15 1018.8 1018.8 0.4
27/01:00am 14.6 11.8 6.9 60 3.8 NW 11 17 6 9 1019.0 1019.0 0.4
27/12:30am 14.6 11.6 6.2 57 4.1 NW 11 19 6 10 1019.2 1019.2 0.4
27/12:00am 14.2 11.2 6.1 58 3.9 NW 11 15 6 8 1019.7 1019.7 0.4
 
Date/Time
WST
Temp
°C
App
Temp
°C
Dew
Point
°C
Rel
Hum
%
Delta-T
°C
Wind Press
QNH
hPa
Press
MSL
hPa
Rain since
9am
mm
Dir  Spd
km/h
Gust
km/h
Spd
kts
Gust
kts
26/11:30pm 13.8 10.8 6.2 60 3.6 WNW 11 17 6 9 1020.1 1020.0 0.4
26/11:00pm 14.1 10.7 6.0 58 3.9 WNW 13 20 7 11 1020.4 1020.4 0.4
26/10:30pm 14.2 10.7 7.3 63 3.4 WNW 15 24 8 13 1020.6 1020.6 0.4
26/10:00pm 14.3 10.9 5.9 57 4.0 WNW 13 22 7 12 1020.7 1020.7 0.4
26/09:30pm 14.2 10.0 5.6 56 4.1 NW 17 26 9 14 1020.8 1020.8 0.4
26/09:00pm 14.2 10.8 6.1 58 3.9 NW 13 22 7 12 1021.0 1021.0 0.4
26/08:30pm 14.1 11.2 6.5 60 3.7 WNW 11 20 6 11 1021.1 1021.1 0.4
26/08:00pm 14.0 10.5 5.6 57 4.0 WNW 13 17 7 9 1021.1 1021.1 0.4
26/07:30pm 14.2 10.0 5.6 56 4.1 WNW 17 24 9 13 1021.2 1021.2 0.4
26/07:00pm 13.9 11.5 7.2 64 3.3 NW 9 17 5 9 1021.2 1021.2 0.4
26/06:30pm 13.9 11.2 7.2 64 3.3 WNW 11 19 6 10 1021.2 1021.2 0.4
26/06:00pm 13.7 10.3 7.5 66 3.0 WNW 15 26 8 14 1021.1 1021.1 0.4
26/05:30pm 13.0 10.8 7.7 70 2.6 NW 9 15 5 8 1021.0 1021.0 0.4
26/05:00pm 13.2 10.6 7.6 69 2.7 WNW 11 15 6 8 1021.2 1021.2 0.4
26/04:30pm 13.4 10.7 8.9 74 2.3 WNW 13 24 7 13 1021.4 1021.4 0.4
26/04:00pm 12.8 9.9 9.6 81 1.6 NW 15 32 8 17 1021.5 1021.5 0.2
26/03:30pm 14.6 10.7 7.2 61 3.6 NW 17 28 9 15 1021.5 1021.5 0.0
26/03:00pm 14.8 11.2 6.9 59 3.9 NW 15 24 8 13 1021.4 1021.4 0.0
26/02:30pm 14.9 10.9 6.5 57 4.1 WNW 17 28 9 15 1021.5 1021.5 0.0
26/02:00pm 14.9 11.4 7.2 60 3.8 WNW 15 22 8 12 1021.5 1021.5 0.0
26/01:30pm 15.1 11.3 7.4 60 3.8 NW 17 41 9 22 1021.9 1021.9 0.0
26/01:00pm 15.1 11.2 7.2 59 3.9 WNW 17 22 9 12 1022.3 1022.3 0.0
26/12:30pm 15.1 11.8 6.4 56 4.2 NW 13 22 7 12 1022.6 1022.6 0.0
26/12:00pm 14.7 11.9 6.8 59 3.8 NW 11 20 6 11 1023.2 1023.2 0.0
26/11:30am 14.5 11.1 6.1 57 4.0 WNW 13 24 7 13 1023.6 1023.6 0.0
26/11:00am 14.6 10.5 6.4 58 4.0 WNW 17 28 9 15 1023.9 1023.9 0.0
26/10:30am 14.6 11.2 5.7 55 4.2 WNW 13 22 7 12 1024.1 1024.1 0.0
26/10:00am 14.5 11.1 6.1 57 4.0 WNW 13 20 7 11 1024.1 1024.1 0.0
26/09:30am 14.1 10.7 5.7 57 4.0 NW 13 19 7 10 1024.0 1024.0 0.0
26/09:00am 13.5 10.4 5.4 58 3.8 WNW 11 19 6 10 1024.0 1024.0 0.4
26/08:30am 12.8 10.2 5.9 63 3.3 NW 9 13 5 7 1023.9 1023.9 0.4
26/08:00am 11.8 9.7 6.5 70 2.5 NNW 7 9 4 5 1023.8 1023.8 0.4
26/07:30am 12.6 9.3 4.8 59 3.6 W 11 20 6 11 1023.6 1023.6 0.4
26/07:00am 12.3 8.9 6.1 66 2.9 W 13 22 7 12 1023.4 1023.4 0.4
26/06:30am 10.4 8.9 9.3 93 0.5 N 7 11 4 6 1023.2 1023.2 0.4
26/06:00am 10.6 8.9 9.8 95 0.4 N 9 11 5 6 1023.0 1023.0 0.4
26/05:30am 11.0 10.6 9.9 93 0.6 NW 2 9 1 5 1022.9 1022.9 0.4
26/05:00am 11.2 9.9 10.0 92 0.6 NNW 7 9 4 5 1022.8 1022.8 0.4
26/04:30am 11.3 9.5 9.6 89 0.9 NW 9 13 5 7 1022.9 1022.9 0.2
26/04:00am 9.0 6.9 8.4 96 0.3 N 9 13 5 7 1023.1 1023.1 0.2
26/03:30am 8.7 7.2 8.6 99 0.0 NNW 6 9 3 5 1023.0 1023.0 0.0
26/03:00am 8.4 6.7 8.3 99 0.0 NNW 7 9 4 5 1023.1 1023.1 0.0
26/02:30am 7.6 5.3 7.5 99 0.0 N 9 11 5 6 1023.2 1023.2 0.0
26/02:00am 8.9 8.3 8.8 99 0.0 NNW 2 6 1 3 1023.4 1023.4 0.0
26/01:30am 8.6 8.3 8.5 99 0.0 CALM 0 0 0 0 1023.3 1023.3 0.0
26/01:00am 7.3 6.7 7.2 99 0.0 CALM 0 0 0 0 1023.2 1023.2 0.0
26/12:30am 7.9 6.6 7.8 99 0.0 NNW 4 6 2 3 1023.1 1023.1 0.0
26/12:00am 8.5 8.1 8.4 99 0.0 CALM 0 4 0 2 1023.4 1023.4 0.0
 
Date/Time
WST
Temp
°C
App
Temp
°C
Dew
Point
°C
Rel
Hum
%
Delta-T
°C
Wind Press
QNH
hPa
Press
MSL
hPa
Rain since
9am
mm
Dir  Spd
km/h
Gust
km/h
Spd
kts
Gust
kts
25/11:30pm 8.4 7.6 8.3 99 0.0 NNW 2 48 1 26 1023.5 1023.5 0.0
25/11:00pm 7.8 5.9 7.7 99 0.0 NNW 7 7 4 4 1023.3 1023.3 0.0
25/10:30pm 8.0 6.2 7.9 99 0.0 NNW 7 9 4 5 1023.2 1023.2 0.0
25/10:00pm 8.2 6.4 8.1 99 0.0 NNW 7 7 4 4 1023.4 1023.4 0.0
25/09:30pm 7.9 7.0 7.8 99 0.0 NNW 2 11 1 6 1023.5 1023.5 0.0
25/09:00pm 8.2 7.8 8.1 99 0.0 CALM 0 0 0 0 1023.6 1023.6 0.0
25/08:30pm 7.2 6.5 6.9 98 0.1 CALM 0 0 0 0 1023.6 1023.6 0.0
25/08:00pm 7.5 6.8 6.8 95 0.3 CALM 0 0 0 0 1023.3 1023.3 0.0
25/07:30pm 8.5 7.9 7.6 94 0.4 CALM 0 0 0 0 1023.3 1023.3 0.0
25/07:00pm 9.7 8.9 8.3 91 0.7 N 2 6 1 3 1023.2 1023.2 0.0
25/06:30pm 9.5 8.9 7.6 88 0.9 CALM 0 0 0 0 1022.9 1022.9 0.0
25/06:00pm 10.2 9.7 8.0 86 1.1 CALM 0 0 0 0 1022.5 1022.5 0.0
25/05:30pm 11.3 10.9 8.3 82 1.5 CALM 0 0 0 0 1022.2 1022.2 0.0
25/05:00pm 12.0 11.3 7.1 72 2.4 CALM 0 0 0 0 1021.8 1021.8 0.0
25/04:30pm 13.5 11.4 6.8 64 3.2 S 7 11 4 6 1021.7 1021.7 0.0
25/04:00pm 14.1 12.2 7.6 65 3.2 SSE 7 13 4 7 1021.6 1021.6 0.0

Other Formats:

Comma delimited format used in spreadsheet applications
http://www.bom.gov.au/fwo/IDW60801/IDW60801.95641.axf

JavaScript Object Notation format (JSON) in row-major order
http://www.bom.gov.au/fwo/IDW60801/IDW60801.95641.json